Time;durP1;ratioP1;P1;durP2;ratioP2;P2;SDS_P1;SDS_P2;PMS_P1;PMS_P2;Temp;Humidity;BMP_temperature;BMP_pressure;BME280_temperature;BME280_humidity;BME280_pressure;Samples;Min_cycle;Max_cycle;Signal;HPM_P1;HPM_P2
2021/01/22 06:13:30;;;;;;;44.50;19.85;;;;;;;-0.89;83.44;99644.72;1708942;81;951460;-56
2021/01/22 06:15:58;;;;;;;47.65;22.48;;;;;;;-0.79;83.22;99640.36;1726149;82;21714;-58
2021/01/22 06:18:31;;;;;;;52.70;23.77;;;;;;;-0.68;82.91;99634.17;1713396;83;21182;-57
2021/01/22 06:21:11;;;;;;;49.00;21.68;;;;;;;-0.60;82.58;99644.34;1746692;81;21648;-57
2021/01/22 06:23:39;;;;;;;39.27;17.00;;;;;;;-0.57;82.08;99630.04;1731533;81;21734;-59
2021/01/22 06:26:08;;;;;;;35.13;17.35;;;;;;;-0.52;81.84;99634.91;1734971;80;21603;-60
2021/01/22 06:28:39;;;;;;;31.10;16.52;;;;;;;-0.56;81.52;99645.83;1741366;80;21624;-59
2021/01/22 06:31:09;;;;;;;29.55;15.60;;;;;;;-0.59;81.41;99646.45;1701795;83;21633;-58
2021/01/22 06:33:38;;;;;;;31.20;15.98;;;;;;;-0.65;81.40;99650.19;1714754;81;21775;-59
2021/01/22 06:36:09;;;;;;;34.30;17.17;;;;;;;-0.68;81.32;99649.10;1698300;82;21638;-59
2021/01/22 06:38:39;;;;;;;33.08;16.87;;;;;;;-0.73;81.43;99651.55;1712045;82;21360;-59
2021/01/22 06:41:09;;;;;;;35.35;18.05;;;;;;;-0.76;81.51;99652.54;1708704;83;21339;-58
2021/01/22 06:43:37;;;;;;;32.70;16.57;;;;;;;-0.76;81.67;99644.84;1747836;80;21314;-59
2021/01/22 06:46:12;;;;;;;38.05;19.70;;;;;;;-0.70;81.72;99645.77;1763662;79;22589;-58
2021/01/22 06:48:58;;;;;;;40.28;19.80;;;;;;;-0.68;81.66;99638.02;1750852;79;21311;-58
2021/01/22 06:51:30;;;;;;;33.45;17.35;;;;;;;-0.61;81.74;99645.27;1752042;79;21173;-59
2021/01/22 06:54:21;;;;;;;35.95;19.05;;;;;;;-0.57;81.68;99627.93;1767701;80;21515;-59
2021/01/22 06:56:57;;;;;;;30.97;17.10;;;;;;;-0.43;81.75;99636.95;1752123;80;21143;-59
2021/01/22 06:59:37;;;;;;;27.62;14.63;;;;;;;-0.25;81.57;99615.77;1728483;80;21783;-59
2021/01/22 07:02:34;;;;;;;33.95;16.82;;;;;;;-0.10;81.29;99612.77;1761945;80;21587;-59
2021/01/22 07:05:35;;;;;;;41.23;19.27;;;;;;;0.01;80.77;99616.80;1821121;77;22235;-57
2021/01/22 07:08:04;;;;;;;38.95;18.75;;;;;;;0.01;80.38;99613.41;1777177;79;21173;-55
2021/01/22 07:10:57;;;;;;;35.60;18.30;;;;;;;0.01;80.38;99613.41;1771119;80;21173;-56
2021/01/22 07:13:35;;;;;;;31.93;16.65;;;;;;;0.06;80.27;99604.94;1744590;79;21175;-57
2021/01/22 07:16:08;;;;;;;33.45;17.00;;;;;;;0.13;80.11;99594.22;1773104;78;21184;-57
2021/01/22 07:18:58;;;;;;;33.85;18.30;;;;;;;0.19;79.86;99601.55;1759406;80;21531;-56
2021/01/22 07:21:37;;;;;;;30.00;15.98;;;;;;;0.22;79.79;99587.67;1772005;78;21154;-58
2021/01/22 07:24:12;;;;;;;28.38;14.95;;;;;;;0.34;79.83;99589.95;1771029;80;21589;-57
2021/01/22 07:26:47;;;;;;;28.98;17.00;;;;;;;0.46;79.77;99588.72;1746232;80;21131;-59
2021/01/22 07:29:21;;;;;;;32.08;18.42;;;;;;;0.54;79.74;99575.38;1721543;82;22259;-58
2021/01/22 07:32:03;;;;;;;34.80;18.15;;;;;;;0.66;79.60;99583.59;1732135;82;21488;-59
2021/01/22 07:34:47;;;;;;;31.62;15.95;;;;;;;0.77;79.41;99585.48;1735489;82;21632;-59
2021/01/22 07:37:20;;;;;;;31.15;16.87;;;;;;;0.90;79.23;99574.77;1733829;82;21297;-59
2021/01/22 07:39:51;;;;;;;31.33;16.62;;;;;;;0.99;78.82;99583.16;1716365;81;21578;-58
2021/01/22 07:42:26;;;;;;;34.83;16.97;;;;;;;1.02;78.65;99587.30;1726325;82;21130;-58
2021/01/22 07:44:54;;;;;;;31.20;16.95;;;;;;;1.03;78.43;99574.33;1722189;82;21758;-58
2021/01/22 07:47:27;;;;;;;37.25;20.57;;;;;;;1.04;78.46;99587.55;1710139;82;21127;-58
2021/01/22 07:50:14;;;;;;;32.63;17.55;;;;;;;1.03;78.30;99581.22;1740714;82;21579;-57
2021/01/22 07:52:47;;;;;;;37.63;20.25;;;;;;;1.06;78.29;99575.89;1733220;81;21543;-57
2021/01/22 07:55:24;;;;;;;36.80;19.70;;;;;;;1.04;78.47;99568.25;1732744;82;21187;-56
2021/01/22 07:58:03;;;;;;;34.92;18.40;;;;;;;1.13;78.45;99575.02;1734371;82;21876;-56
2021/01/22 08:00:38;;;;;;;32.78;17.82;;;;;;;1.24;78.33;99574.69;1734090;82;21190;-58
2021/01/22 08:03:07;;;;;;;41.02;23.55;;;;;;;1.24;78.33;99574.69;1735274;81;21171;-59
2021/01/22 08:05:36;;;;;;;64.30;44.03;;;;;;;1.24;78.29;99587.98;1712483;82;21577;-61
2021/01/22 08:08:23;;;;;;;81.40;58.65;;;;;;;1.24;78.29;99587.98;1714817;82;21607;-65
2021/01/22 08:10:52;;;;;;;40.85;23.42;;;;;;;1.31;78.58;99580.25;1721024;82;21187;-60
2021/01/22 08:13:20;;;;;;;40.25;20.55;;;;;;;1.43;78.47;99579.43;1717212;83;21292;-66
2021/01/22 08:16:04;;;;;;;40.38;20.12;;;;;;;1.51;78.37;99577.62;1717467;81;21313;-68
2021/01/22 08:18:32;;;;;;;41.05;21.00;;;;;;;1.59;78.18;99584.36;1718343;82;21280;-61
2021/01/22 08:21:01;;;;;;;39.92;19.92;;;;;;;1.59;78.04;99580.03;1724247;82;21575;-57
2021/01/22 08:23:32;;;;;;;41.63;22.05;;;;;;;1.62;78.17;99577.73;1720729;82;21739;-60
2021/01/22 08:26:01;;;;;;;43.08;22.42;;;;;;;1.68;78.37;99576.46;1776677;80;21776;-58
2021/01/22 08:28:31;;;;;;;43.33;21.93;;;;;;;1.73;78.25;99573.94;1765391;79;21142;-58
2021/01/22 08:31:00;;;;;;;56.95;26.55;;;;;;;1.82;78.18;99577.19;1761620;80;21665;-58
2021/01/22 08:33:28;;;;;;;39.88;20.92;;;;;;;1.82;78.18;99577.19;1774093;80;21544;-57
2021/01/22 08:35:57;;;;;;;41.05;20.37;;;;;;;1.81;78.15;99572.14;1770639;80;21606;-58
2021/01/22 08:38:26;;;;;;;41.40;22.35;;;;;;;1.84;78.24;99571.92;1778776;79;21574;-58
2021/01/22 08:40:55;;;;;;;41.33;21.60;;;;;;;1.85;78.28;99570.98;1775747;79;21151;-60
2021/01/22 08:43:24;;;;;;;42.10;21.30;;;;;;;1.89;78.42;99573.72;1767130;80;21595;-61
2021/01/22 08:46:12;;;;;;;41.08;21.42;;;;;;;1.84;78.29;99567.59;1718885;82;21780;-59
2021/01/22 08:48:40;;;;;;;39.38;18.87;;;;;;;1.86;78.36;99568.77;1757721;79;21144;-59
2021/01/22 08:51:08;;;;;;;43.13;20.52;;;;;;;1.88;78.50;99566.92;1761560;79;21155;-58
2021/01/22 08:53:51;;;;;;;37.42;19.62;;;;;;;1.82;78.17;99560.44;1717292;82;21734;-58
2021/01/22 08:56:22;;;;;;;36.75;19.55;;;;;;;1.87;78.59;99561.42;1735624;83;21180;-57
2021/01/22 08:59:07;;;;;;;45.00;24.35;;;;;;;1.93;78.56;99552.45;1764993;80;21780;-57
2021/01/22 09:01:56;;;;;;;38.55;20.57;;;;;;;2.00;78.69;99561.39;1769031;81;21194;-57
2021/01/22 09:04:33;;;;;;;38.60;20.30;;;;;;;2.04;78.45;99552.50;1766571;79;21197;-57
2021/01/22 09:07:05;;;;;;;40.67;20.88;;;;;;;2.04;78.51;99553.31;1762682;81;21178;-58
2021/01/22 09:09:48;;;;;;;37.80;19.70;;;;;;;2.07;78.74;99545.86;1763392;81;21150;-57
2021/01/22 09:12:22;;;;;;;34.00;17.60;;;;;;;2.12;78.54;99548.94;1753411;81;21809;-57
2021/01/22 09:14:59;;;;;;;33.08;16.00;;;;;;;2.03;78.46;99545.70;1749950;81;21305;-58
2021/01/22 09:17:38;;;;;;;36.65;19.20;;;;;;;2.05;78.68;99543.83;1775084;79;21148;-59
2021/01/22 09:20:21;;;;;;;39.53;19.65;;;;;;;2.09;78.62;99547.84;1770280;81;21791;-58
2021/01/22 09:22:51;;;;;;;36.58;18.82;;;;;;;2.12;78.63;99535.58;1762098;81;21080;-57
2021/01/22 09:25:22;;;;;;;37.20;18.65;;;;;;;2.19;78.44;99532.58;1759320;81;21670;-59
2021/01/22 09:27:51;;;;;;;32.53;17.62;;;;;;;2.26;78.61;99532.02;1750810;79;21753;-59
2021/01/22 09:30:23;;;;;;;37.17;20.27;;;;;;;2.24;78.31;99535.66;1744298;81;22146;-57
2021/01/22 09:32:57;;;;;;;41.35;22.20;;;;;;;2.23;78.45;99536.09;1748402;81;21547;-59
2021/01/22 09:35:28;;;;;;;42.08;22.80;;;;;;;2.30;78.52;99535.19;1770475;81;21136;-59
2021/01/22 09:37:58;;;;;;;40.63;21.87;;;;;;;2.36;78.45;99531.73;1769203;81;21123;-60
2021/01/22 09:40:26;;;;;;;45.17;24.70;;;;;;;2.41;78.25;99530.09;1747442;81;21567;-58
2021/01/22 09:42:54;;;;;;;49.27;24.85;;;;;;;2.47;78.40;99516.77;1747197;82;21978;-58
2021/01/22 09:45:24;;;;;;;61.40;29.70;;;;;;;2.52;78.23;99513.39;1799020;79;21164;-57
2021/01/22 09:47:52;;;;;;;55.15;29.10;;;;;;;2.56;78.24;99502.39;1779203;81;21583;-58
2021/01/22 09:50:20;;;;;;;46.68;24.55;;;;;;;2.58;78.15;99498.76;1765218;81;21658;-58
2021/01/22 09:52:49;;;;;;;51.37;27.00;;;;;;;2.62;78.06;99482.61;1756477;79;21694;-57
2021/01/22 09:55:18;;;;;;;51.58;26.12;;;;;;;2.67;77.94;99484.36;1718520;82;21304;-58
2021/01/22 09:57:47;;;;;;;74.47;38.38;;;;;;;2.65;77.68;99484.48;1760710;81;21610;-58
2021/01/22 10:00:16;;;;;;;55.48;29.70;;;;;;;2.66;77.92;99479.66;1765574;81;21887;-58
2021/01/22 10:02:47;;;;;;;43.98;22.80;;;;;;;2.67;77.72;99480.48;1775885;81;21334;-64
2021/01/22 10:05:16;;;;;;;45.63;25.05;;;;;;;2.67;77.77;99479.20;1748816;80;22332;-58
2021/01/22 10:07:45;;;;;;;44.13;22.48;;;;;;;2.66;77.51;99482.72;1778311;81;21740;-57
2021/01/22 10:10:14;;;;;;;44.50;25.20;;;;;;;2.65;77.64;99472.87;1718186;82;21589;-58
2021/01/22 10:12:42;;;;;;;44.98;26.07;;;;;;;2.69;77.66;99461.87;1758408;81;21140;-57
2021/01/22 10:15:12;;;;;;;50.40;28.87;;;;;;;2.77;77.67;99471.14;1761227;81;21586;-59
2021/01/22 10:17:42;;;;;;;42.33;21.62;;;;;;;2.83;77.62;99469.40;1773834;79;21159;-58
2021/01/22 10:20:14;;;;;;;47.85;26.40;;;;;;;2.86;77.31;99474.34;1763927;79;21155;-58
2021/01/22 10:22:45;;;;;;;47.20;25.12;;;;;;;2.82;77.23;99463.06;1724288;82;21284;-58
2021/01/22 10:25:13;;;;;;;41.42;21.55;;;;;;;2.84;77.11;99452.16;1747971;81;21191;-57
2021/01/22 10:27:46;;;;;;;39.92;20.95;;;;;;;2.82;77.02;99448.88;1754082;79;21159;-58
2021/01/22 10:30:16;;;;;;;39.65;21.45;;;;;;;2.81;77.13;99442.08;1763421;81;21614;-58
2021/01/22 10:32:44;;;;;;;40.67;22.93;;;;;;;2.81;77.16;99443.38;1749327;81;21273;-57
2021/01/22 10:35:14;;;;;;;38.88;21.00;;;;;;;2.80;77.00;99446.42;1748165;82;21603;-57
2021/01/22 10:37:42;;;;;;;39.83;21.48;;;;;;;2.77;77.12;99438.89;1748210;82;21615;-57
2021/01/22 10:40:12;;;;;;;33.00;18.37;;;;;;;2.79;77.21;99434.43;1751162;79;21599;-58
2021/01/22 10:42:42;;;;;;;33.90;18.12;;;;;;;2.85;77.18;99425.41;1761234;81;21662;-58
2021/01/22 10:45:12;;;;;;;38.10;19.27;;;;;;;2.87;77.13;99428.25;1761620;81;21627;-58
2021/01/22 10:47:40;;;;;;;39.80;19.77;;;;;;;2.86;77.04;99418.88;1720822;82;21545;-58
